Time;durP1;ratioP1;P1;durP2;ratioP2;P2;SDS_P1;SDS_P2;PMS_P1;PMS_P2;Temp;Humidity;BMP_temperature;BMP_pressure;BME280_temperature;BME280_humidity;BME280_pressure;Samples;Min_cycle;Max_cycle;Signal;HPM_P1;HPM_P2
2022/12/06 00:01:34;;;;;;;5.27;2.27;;;;;;;3.85;97.71;101951.63;5028204;28;20025;-78
2022/12/06 00:04:11;;;;;;;3.27;2.10;;;;;;;3.84;97.68;101947.31;5028128;28;20043;-78
2022/12/06 00:06:39;;;;;;;3.63;1.90;;;;;;;3.84;97.61;101948.22;5027914;28;20036;-78
2022/12/06 00:09:06;;;;;;;3.37;1.77;;;;;;;3.85;97.70;101949.91;5027531;28;20033;-78
2022/12/06 00:11:34;;;;;;;4.13;2.23;;;;;;;3.86;97.79;101950.78;5025941;28;20061;-78
2022/12/06 00:14:02;;;;;;;3.70;1.90;;;;;;;3.86;97.70;101954.22;5027322;28;20029;-78
2022/12/06 00:16:28;;;;;;;3.80;1.90;;;;;;;3.86;97.59;101949.06;5025780;28;20033;-78
2022/12/06 00:18:53;;;;;;;3.63;2.00;;;;;;;3.88;97.83;101949.13;5029025;28;20014;-78
2022/12/06 00:21:21;;;;;;;3.17;1.93;;;;;;;3.88;98.06;101952.56;5025903;28;20530;-78
2022/12/06 00:23:52;;;;;;;4.20;2.10;;;;;;;3.89;97.72;101945.72;5027555;28;20017;-78
2022/12/06 00:26:19;;;;;;;4.78;2.10;;;;;;;3.88;97.95;101942.25;5028993;28;20033;-78
2022/12/06 00:28:45;;;;;;;3.43;2.10;;;;;;;3.89;97.71;101948.28;5026853;28;20045;-78
2022/12/06 00:31:18;;;;;;;3.20;2.20;;;;;;;3.89;97.91;101945.72;5027081;28;20044;-78
2022/12/06 00:33:44;;;;;;;3.23;1.93;;;;;;;3.89;97.99;101950.88;5024002;28;20033;-78
2022/12/06 00:36:17;;;;;;;3.57;2.10;;;;;;;3.90;97.93;101944.88;5026327;28;20033;-78
2022/12/06 00:38:43;;;;;;;4.17;2.20;;;;;;;3.91;97.89;101949.19;5031621;28;20244;-78
2022/12/06 00:41:13;;;;;;;3.87;2.10;;;;;;;3.92;98.32;101951.78;5031931;28;20501;-78
2022/12/06 00:43:39;;;;;;;3.20;1.90;;;;;;;3.93;97.94;101947.50;5024190;28;20026;-78
2022/12/06 00:46:07;;;;;;;4.47;2.20;;;;;;;3.95;98.16;101943.25;5030622;28;20033;-78
2022/12/06 00:48:33;;;;;;;3.27;1.70;;;;;;;3.96;97.91;101947.56;5020904;28;20465;-78
2022/12/06 00:50:58;;;;;;;4.90;2.27;;;;;;;3.95;98.46;101941.56;5034986;28;20071;-78
2022/12/06 00:53:24;;;;;;;3.40;2.10;;;;;;;3.96;98.63;101939.84;5029018;28;20033;-78
2022/12/06 00:55:49;;;;;;;4.60;2.20;;;;;;;3.98;98.53;101940.72;5026936;28;20424;-78
2022/12/06 00:58:15;;;;;;;3.60;2.00;;;;;;;3.98;98.46;101945.88;5030799;28;20033;-78
2022/12/06 01:00:41;;;;;;;3.63;2.10;;;;;;;3.99;98.17;101942.47;5030303;28;20025;-78
2022/12/06 01:03:08;;;;;;;3.87;2.37;;;;;;;4.01;98.47;101945.09;5033070;28;20045;-78
2022/12/06 01:05:33;;;;;;;3.53;2.00;;;;;;;4.02;98.09;101945.13;5029538;28;20033;-78
2022/12/06 01:07:58;;;;;;;4.13;2.27;;;;;;;4.03;98.04;101949.44;5026114;28;20069;-78
2022/12/06 01:10:24;;;;;;;4.40;2.30;;;;;;;4.03;98.39;101943.38;5032601;28;20464;-78
2022/12/06 01:12:50;;;;;;;5.33;2.30;;;;;;;4.03;97.90;101944.28;5027632;28;20033;-78
2022/12/06 01:15:15;;;;;;;4.73;2.37;;;;;;;4.05;98.11;101946.88;5032224;28;20033;-78
2022/12/06 01:17:41;;;;;;;5.03;2.20;;;;;;;4.05;97.98;101941.72;5028150;28;20029;-78
2022/12/06 01:20:06;;;;;;;5.13;2.60;;;;;;;4.05;97.94;101941.72;5029327;28;20037;-78
2022/12/06 01:22:32;;;;;;;3.93;2.37;;;;;;;4.05;97.99;101944.28;5032377;28;20384;-78
2022/12/06 01:24:58;;;;;;;4.40;2.27;;;;;;;4.04;98.14;101943.44;5028363;28;20052;-78
2022/12/06 01:27:23;;;;;;;4.63;2.73;;;;;;;4.06;98.14;101946.91;5035454;28;20047;-78
2022/12/06 01:29:48;;;;;;;5.27;2.80;;;;;;;4.05;98.52;101942.59;5029799;28;20484;-78
2022/12/06 01:32:13;;;;;;;5.30;2.60;;;;;;;4.06;98.35;101943.47;5025241;28;20033;-78
2022/12/06 01:34:39;;;;;;;6.17;2.80;;;;;;;4.04;98.27;101946.00;5027936;28;20033;-78
2022/12/06 01:37:04;;;;;;;5.17;2.53;;;;;;;4.05;98.36;101946.88;5028045;28;20033;-78
2022/12/06 01:39:30;;;;;;;5.00;2.70;;;;;;;4.04;98.49;101951.16;5028719;28;20013;-78
2022/12/06 01:41:55;;;;;;;6.63;2.60;;;;;;;4.03;98.14;101949.44;5029373;28;20025;-78
2022/12/06 01:44:39;;;;;;;4.63;2.60;;;;;;;4.05;98.50;101946.88;5028654;28;20396;-78
2022/12/06 01:47:09;;;;;;;6.27;2.80;;;;;;;4.03;98.16;101941.69;5028398;28;20663;-78
2022/12/06 01:49:34;;;;;;;5.70;2.67;;;;;;;4.03;98.41;101944.28;5032910;28;20107;-78
2022/12/06 01:52:10;;;;;;;4.73;2.67;;;;;;;4.04;98.19;101940.88;5025554;28;20032;-78
2022/12/06 01:54:36;;;;;;;4.77;2.57;;;;;;;4.04;98.40;101938.28;5027372;28;20026;-78
2022/12/06 01:57:05;;;;;;;5.20;2.73;;;;;;;4.04;98.41;101940.88;5030535;28;20033;-78
2022/12/06 01:59:30;;;;;;;4.30;2.73;;;;;;;4.05;98.47;101934.88;5027578;28;20431;-78
2022/12/06 02:01:56;;;;;;;6.17;2.67;;;;;;;4.06;98.72;101934.03;5028443;28;20096;-78
2022/12/06 02:04:23;;;;;;;4.53;2.80;;;;;;;4.07;98.44;101930.63;5027346;28;20025;-78
2022/12/06 02:06:51;;;;;;;5.43;2.90;;;;;;;4.08;98.23;101934.94;5026171;28;20017;-78
2022/12/06 02:09:17;;;;;;;6.13;3.13;;;;;;;4.09;98.50;101931.53;5031525;28;20032;-78
2022/12/06 02:11:43;;;;;;;5.87;3.40;;;;;;;4.09;98.42;101939.25;5027153;28;20087;-78
2022/12/06 02:14:12;;;;;;;5.97;3.05;;;;;;;4.09;98.75;101936.69;5033987;28;20017;-78
2022/12/06 02:17:10;;;;;;;6.63;3.17;;;;;;;4.09;98.34;101926.38;5027318;28;20061;-78
2022/12/06 02:20:17;;;;;;;5.75;2.95;;;;;;;4.10;98.74;101935.81;5025690;28;20037;-78
2022/12/06 02:23:15;;;;;;;5.50;2.90;;;;;;;4.09;98.48;101930.66;5013826;28;20371;-78
2022/12/06 02:26:02;;;;;;;5.40;3.10;;;;;;;4.08;98.64;101934.94;5028016;28;20390;-78
2022/12/06 02:28:56;;;;;;;7.10;3.27;;;;;;;4.08;98.40;101932.38;5030057;28;20045;-78
2022/12/06 02:31:41;;;;;;;5.13;2.90;;;;;;;4.07;98.21;101930.63;5022031;28;20051;-78
2022/12/06 02:34:19;;;;;;;4.73;3.03;;;;;;;4.08;98.27;101927.22;5012267;28;20029;-78
2022/12/06 02:37:07;;;;;;;5.67;3.60;;;;;;;4.05;98.18;101928.84;5024737;28;20025;-78
2022/12/06 02:39:50;;;;;;;5.23;3.30;;;;;;;4.05;97.91;101922.00;5027530;28;20033;-78
2022/12/06 02:42:26;;;;;;;5.20;3.27;;;;;;;4.03;98.45;101928.81;5025919;28;20044;-78
2022/12/06 02:45:00;;;;;;;4.90;2.87;;;;;;;4.02;98.19;101921.94;5026152;28;20021;-78
2022/12/06 02:47:34;;;;;;;7.27;3.43;;;;;;;4.02;98.17;101916.78;5026716;28;20032;-78
2022/12/06 02:50:02;;;;;;;5.40;3.33;;;;;;;4.01;97.95;101924.50;5027927;28;20030;-78
2022/12/06 02:52:32;;;;;;;5.57;3.50;;;;;;;4.02;98.19;101915.91;5008504;28;20488;-78
2022/12/06 02:55:00;;;;;;;6.57;3.40;;;;;;;4.03;98.21;101915.06;5009641;28;20037;-78
2022/12/06 02:57:46;;;;;;;5.57;3.30;;;;;;;4.02;98.22;101914.22;5031489;28;20048;-78
2022/12/06 03:00:39;;;;;;;5.10;2.93;;;;;;;4.01;98.21;101907.31;5029655;28;20025;-78
2022/12/06 03:03:43;;;;;;;5.57;3.13;;;;;;;4.03;98.17;101912.50;5030006;28;20025;-78
2022/12/06 03:06:39;;;;;;;5.50;3.03;;;;;;;4.00;98.65;101908.16;5030676;28;20045;-78
2022/12/06 03:09:04;;;;;;;4.73;3.27;;;;;;;4.00;98.48;101907.31;5033674;28;20025;-78
2022/12/06 03:11:53;;;;;;;5.13;3.23;;;;;;;4.00;98.72;101908.16;5033839;28;20033;-78
2022/12/06 03:14:24;;;;;;;4.63;2.90;;;;;;;4.00;98.76;101913.31;5032823;28;20405;-78
2022/12/06 03:17:13;;;;;;;6.82;3.33;;;;;;;4.00;98.69;101913.31;5027493;28;20491;-78
2022/12/06 03:19:41;;;;;;;6.20;2.87;;;;;;;3.99;98.32;101915.88;5006810;28;20434;-78
2022/12/06 03:22:28;;;;;;;6.10;3.20;;;;;;;3.98;98.47;101920.13;5024727;28;20123;-78
2022/12/06 03:24:54;;;;;;;5.80;3.37;;;;;;;3.97;98.56;101918.41;5024401;28;20044;-78
2022/12/06 03:27:22;;;;;;;4.33;2.87;;;;;;;3.97;98.64;101925.28;5004623;28;20026;-78
2022/12/06 03:29:52;;;;;;;4.73;3.03;;;;;;;3.97;98.69;101923.53;5026539;28;20091;-78
2022/12/06 03:32:19;;;;;;;5.20;3.27;;;;;;;3.96;98.38;101921.81;5025046;28;20025;-78
2022/12/06 03:34:49;;;;;;;4.40;2.73;;;;;;;3.97;98.70;101920.97;5019139;28;20494;-78
2022/12/06 03:37:20;;;;;;;5.00;2.77;;;;;;;3.99;98.49;101921.03;5027861;28;20044;-78
2022/12/06 03:39:50;;;;;;;5.77;3.00;;;;;;;3.98;98.56;101922.72;5027198;28;20102;-78
2022/12/06 03:42:17;;;;;;;4.90;3.00;;;;;;;3.99;98.37;101916.72;5027647;28;20040;-78
2022/12/06 03:44:42;;;;;;;6.23;3.50;;;;;;;3.99;98.61;101910.72;5002982;28;20395;-78
2022/12/06 03:47:15;;;;;;;4.27;2.73;;;;;;;4.01;98.96;101914.19;5022993;28;20156;-78
2022/12/06 03:49:46;;;;;;;5.53;2.90;;;;;;;4.01;98.74;101911.63;5025241;28;20033;-78
2022/12/06 03:52:11;;;;;;;6.40;3.03;;;;;;;4.00;98.77;101913.31;5027262;28;20021;-78
2022/12/06 03:54:40;;;;;;;5.60;3.30;;;;;;;4.00;98.52;101913.31;5026089;28;20036;-78
2022/12/06 03:57:06;;;;;;;5.88;3.20;;;;;;;4.00;98.68;101915.03;5021596;28;20183;-78
2022/12/06 03:59:31;;;;;;;5.83;3.20;;;;;;;4.00;98.48;101912.47;5028417;28;20555;-78
2022/12/06 04:01:56;;;;;;;5.43;3.40;;;;;;;3.99;98.71;101916.72;5023214;28;20029;-78
2022/12/06 04:04:23;;;;;;;5.63;3.10;;;;;;;3.99;98.75;101921.88;5024069;28;20096;-78
2022/12/06 04:06:49;;;;;;;6.73;3.20;;;;;;;3.99;98.63;101919.28;5024527;28;20498;-78
2022/12/06 04:11:58;;;;;;;4.70;2.90;;;;;;;3.99;98.43;101913.28;5023800;28;20484;-78
2022/12/06 04:14:31;;;;;;;5.87;3.13;;;;;;;4.00;98.53;101910.72;5021576;28;20029;-78
2022/12/06 04:19:43;;;;;;;5.00;3.20;;;;;;;4.01;98.57;101909.91;5023774;28;20396;-78
2022/12/06 04:24:52;;;;;;;6.27;3.10;;;;;;;4.02;98.72;101906.50;5022124;28;20399;-78
2022/12/06 04:40:56;;;;;;;8.13;3.97;;;;;;;4.02;98.37;101914.22;5023494;28;20172;-78
2022/12/06 04:46:05;;;;;;;8.10;3.73;;;;;;;4.00;98.72;101918.47;5023792;28;20083;-78
2022/12/06 04:48:31;;;;;;;7.37;3.57;;;;;;;4.01;98.50;101909.91;5026262;28;21923;-78
2022/12/06 04:50:56;;;;;;;7.80;3.73;;;;;;;4.00;98.51;101913.31;5024599;28;20075;-78
2022/12/06 04:53:22;;;;;;;7.50;3.92;;;;;;;4.00;98.55;101913.31;5026608;28;20532;-78
2022/12/06 04:55:47;;;;;;;6.40;3.93;;;;;;;4.00;98.74;101910.72;5028317;28;20036;-78
2022/12/06 04:58:13;;;;;;;9.03;3.97;;;;;;;4.00;99.14;101915.88;5025736;28;20082;-78
2022/12/06 05:00:42;;;;;;;8.37;3.67;;;;;;;4.00;99.10;101913.31;5025464;28;20021;-78
2022/12/06 05:03:13;;;;;;;7.93;3.73;;;;;;;4.00;98.61;101909.88;5001188;28;20026;-78
2022/12/06 05:05:39;;;;;;;13.97;4.20;;;;;;;4.01;98.76;101914.19;5026796;28;20030;-78
2022/12/06 05:08:04;;;;;;;8.23;3.63;;;;;;;4.01;98.62;101912.47;5026990;28;20467;-78
2022/12/06 05:10:29;;;;;;;8.10;3.80;;;;;;;4.02;98.76;101913.31;5023558;28;20033;-78
2022/12/06 05:12:55;;;;;;;8.63;3.93;;;;;;;3.99;98.67;101911.56;5027558;28;20460;-78
2022/12/06 05:15:20;;;;;;;6.93;3.60;;;;;;;4.02;98.85;101911.63;5006777;28;20458;-78
2022/12/06 05:17:45;;;;;;;8.03;3.80;;;;;;;4.00;99.14;101908.16;5023611;28;20071;-78
2022/12/06 05:20:13;;;;;;;6.73;3.43;;;;;;;4.00;98.95;101908.16;5022959;28;20021;-78
2022/12/06 05:22:38;;;;;;;6.67;3.70;;;;;;;3.99;98.98;101901.28;5025129;28;20045;-78
2022/12/06 05:25:04;;;;;;;8.90;3.57;;;;;;;4.00;99.02;101910.72;5026771;28;20033;-78
2022/12/06 05:27:29;;;;;;;6.83;3.60;;;;;;;4.00;98.46;101913.31;5024500;28;20064;-78
2022/12/06 05:29:54;;;;;;;8.43;3.67;;;;;;;3.99;98.93;101910.72;5025780;28;20048;-78
2022/12/06 05:32:19;;;;;;;8.00;4.13;;;;;;;3.98;98.53;101909.84;5028701;28;20041;-78
2022/12/06 05:34:44;;;;;;;8.10;3.33;;;;;;;3.95;99.01;101902.94;5025822;28;20264;-78
2022/12/06 05:37:10;;;;;;;7.20;3.37;;;;;;;3.95;98.66;101912.34;5027692;28;20147;-78
2022/12/06 05:39:35;;;;;;;6.83;3.07;;;;;;;3.95;98.59;101904.63;5028149;28;20472;-78
2022/12/06 05:42:01;;;;;;;5.30;3.20;;;;;;;3.94;98.52;101903.78;5031257;28;20026;-78
2022/12/06 05:44:26;;;;;;;6.10;3.33;;;;;;;3.95;98.77;101907.19;5024213;28;20060;-78
2022/12/06 05:46:52;;;;;;;6.93;3.07;;;;;;;3.94;98.64;101911.50;5030253;28;20715;-78
2022/12/06 05:49:17;;;;;;;9.47;3.83;;;;;;;3.95;98.66;101914.91;5025583;28;20036;-78
2022/12/06 05:51:43;;;;;;;5.70;3.10;;;;;;;3.96;98.95;101908.94;5029037;28;20116;-78
2022/12/06 05:54:08;;;;;;;7.30;3.90;;;;;;;3.96;98.86;101911.50;5025095;28;20029;-78
2022/12/06 05:56:33;;;;;;;8.20;3.13;;;;;;;3.96;98.75;101901.22;5029727;28;20227;-78
2022/12/06 05:58:58;;;;;;;5.60;3.37;;;;;;;3.97;98.64;101904.66;5029323;28;20464;-78
2022/12/06 06:01:24;;;;;;;5.57;3.23;;;;;;;3.97;98.56;101907.25;5028068;28;20025;-77
2022/12/06 06:03:49;;;;;;;6.33;3.30;;;;;;;3.98;98.42;101912.41;5025759;28;20701;-78
2022/12/06 06:06:16;;;;;;;7.53;3.00;;;;;;;3.99;98.43;101915.88;5029605;28;20029;-78
2022/12/06 06:08:41;;;;;;;5.83;3.13;;;;;;;3.98;98.26;101909.84;5024922;28;20048;-78
2022/12/06 06:11:06;;;;;;;5.57;2.73;;;;;;;3.97;98.14;101913.25;5029936;28;20460;-78
2022/12/06 06:13:32;;;;;;;7.70;3.23;;;;;;;3.99;98.32;101916.72;5025499;28;20113;-78
2022/12/06 06:15:57;;;;;;;7.30;3.03;;;;;;;3.99;98.29;101914.16;5026502;28;20475;-78
2022/12/06 06:18:23;;;;;;;8.13;3.17;;;;;;;3.98;98.52;101916.72;5006043;28;20453;-78
2022/12/06 06:20:53;;;;;;;5.47;3.23;;;;;;;3.97;97.81;101920.97;5028167;28;20423;-78
2022/12/06 06:23:20;;;;;;;7.43;3.30;;;;;;;3.95;98.27;101917.50;5026823;28;20340;-78
2022/12/06 06:25:46;;;;;;;6.03;2.80;;;;;;;3.96;97.85;101916.66;5024999;28;20084;-78
2022/12/06 06:28:11;;;;;;;7.93;3.40;;;;;;;3.94;98.19;101918.34;5029733;28;20050;-78
2022/12/06 06:30:37;;;;;;;7.07;3.13;;;;;;;3.94;97.87;101920.91;5028767;28;20029;-78
2022/12/06 06:33:02;;;;;;;5.33;2.97;;;;;;;3.90;97.60;101916.56;5006889;28;20330;-78
2022/12/06 06:35:28;;;;;;;6.20;3.03;;;;;;;3.88;98.08;101913.94;5028183;28;20040;-78
2022/12/06 06:37:53;;;;;;;6.17;2.73;;;;;;;3.87;98.04;101911.34;5026454;28;20108;-78
2022/12/06 06:40:19;;;;;;;5.33;2.93;;;;;;;3.86;98.04;101914.75;5025019;28;20028;-78
2022/12/06 06:42:44;;;;;;;6.07;3.00;;;;;;;3.85;97.91;101915.59;5025436;28;20029;-78
2022/12/06 06:45:09;;;;;;;6.67;3.20;;;;;;;3.83;97.96;101914.69;5025198;28;20029;-78
2022/12/06 06:47:35;;;;;;;5.83;3.13;;;;;;;3.82;97.59;101910.38;5028631;28;20472;-78
2022/12/06 06:50:00;;;;;;;6.17;2.90;;;;;;;3.80;97.73;101915.50;5027754;28;20063;-78
2022/12/06 06:52:25;;;;;;;5.07;3.00;;;;;;;3.79;97.48;101908.63;5027196;28;20461;-78
2022/12/06 06:54:51;;;;;;;7.90;3.13;;;;;;;3.76;97.76;101904.25;5027625;28;20036;-78
2022/12/06 06:57:17;;;;;;;5.53;2.87;;;;;;;3.75;97.82;101907.72;5021833;28;20034;-78
2022/12/06 06:59:42;;;;;;;5.17;2.83;;;;;;;3.72;97.69;101902.50;5027329;28;20034;-78
2022/12/06 07:02:13;;;;;;;6.70;3.20;;;;;;;3.71;97.71;101912.75;5027241;28;20037;-78
2022/12/06 07:04:39;;;;;;;6.57;2.83;;;;;;;3.70;97.52;101906.75;5026660;28;20037;-78
2022/12/06 07:07:04;;;;;;;4.80;2.87;;;;;;;3.68;97.24;101904.94;5030043;28;20029;-78
2022/12/06 07:09:30;;;;;;;6.03;3.00;;;;;;;3.68;97.66;101905.84;5028598;28;20537;-78
2022/12/06 07:11:56;;;;;;;7.07;2.90;;;;;;;3.67;97.63;101906.66;5026643;28;20112;-78
2022/12/06 07:14:21;;;;;;;5.72;2.67;;;;;;;3.66;97.81;101906.66;5023617;28;20087;-78
2022/12/06 07:16:46;;;;;;;5.47;2.70;;;;;;;3.67;97.70;101906.66;5026064;28;20021;-78
2022/12/06 07:19:12;;;;;;;4.93;2.70;;;;;;;3.64;97.93;101904.03;5026342;28;20029;-78
2022/12/06 07:21:38;;;;;;;5.00;2.57;;;;;;;3.64;97.68;101909.19;5025255;28;20493;-78
2022/12/06 07:24:03;;;;;;;4.65;2.33;;;;;;;3.63;97.47;101908.31;5029085;28;20506;-78
2022/12/06 07:26:29;;;;;;;5.07;2.77;;;;;;;3.61;97.64;101909.09;5026706;28;20041;-78
2022/12/06 07:28:56;;;;;;;6.00;3.00;;;;;;;3.59;97.94;101910.78;5030941;28;20480;-78
2022/12/06 07:31:24;;;;;;;5.87;2.83;;;;;;;3.58;97.76;101916.78;5026779;28;20057;-78
2022/12/06 07:33:54;;;;;;;6.60;2.90;;;;;;;3.59;98.10;101915.94;5026588;28;20092;-78
2022/12/06 07:36:21;;;;;;;6.63;3.23;;;;;;;3.59;97.93;101915.94;5028369;28;20045;-78
2022/12/06 07:38:49;;;;;;;8.13;3.30;;;;;;;3.58;97.98;101920.22;5024842;28;20060;-78
2022/12/06 07:46:46;;;;;;;6.03;3.10;;;;;;;3.59;97.82;101913.34;5026186;28;20045;-78
2022/12/06 07:49:14;;;;;;;5.80;2.83;;;;;;;3.57;97.97;101915.91;5022630;28;20040;-78
2022/12/06 07:51:40;;;;;;;7.30;2.60;;;;;;;3.59;97.80;101915.94;5024684;28;20116;-78
2022/12/06 07:54:05;;;;;;;6.00;3.00;;;;;;;3.59;97.93;101927.09;5026037;28;20108;-78
2022/12/06 07:56:30;;;;;;;9.63;2.87;;;;;;;3.59;97.80;101928.78;5023433;28;20055;-78
2022/12/06 07:58:55;;;;;;;7.20;2.83;;;;;;;3.60;97.83;101927.94;5031614;28;20377;-78
2022/12/06 08:01:22;;;;;;;6.07;2.50;;;;;;;3.59;98.02;101933.94;5026113;28;20029;-78
2022/12/06 08:03:47;;;;;;;7.20;2.80;;;;;;;3.60;97.78;101926.28;5024438;28;20044;-78
2022/12/06 08:06:12;;;;;;;4.93;2.60;;;;;;;3.62;98.26;101936.56;5022562;28;20034;-78
2022/12/06 08:08:38;;;;;;;5.43;2.53;;;;;;;3.62;98.04;101936.56;5024153;28;20033;-78
2022/12/06 08:11:06;;;;;;;4.63;2.40;;;;;;;3.63;98.06;101938.31;5029829;28;20030;-78
2022/12/06 08:13:33;;;;;;;4.67;2.43;;;;;;;3.62;97.70;101928.84;5024766;28;20083;-78
2022/12/06 08:15:58;;;;;;;4.67;2.30;;;;;;;3.64;98.16;101932.34;5026214;28;20033;-78
2022/12/06 08:18:24;;;;;;;4.53;2.20;;;;;;;3.66;98.12;101932.38;5006084;28;20457;-78
2022/12/06 08:20:51;;;;;;;5.10;2.40;;;;;;;3.66;97.85;101937.53;5023861;28;20032;-78
2022/12/06 08:23:17;;;;;;;4.33;2.10;;;;;;;3.68;97.73;101936.72;5022527;28;20468;-78
2022/12/06 08:25:42;;;;;;;5.17;2.30;;;;;;;3.70;97.67;101936.72;5023891;28;20116;-78
2022/12/06 08:28:07;;;;;;;5.50;2.30;;;;;;;3.72;97.79;101937.63;5022109;28;20053;-78
2022/12/06 08:30:33;;;;;;;3.30;1.80;;;;;;;3.74;97.84;101942.00;5026871;28;20105;-78
2022/12/06 08:32:58;;;;;;;4.23;2.13;;;;;;;3.76;97.90;101932.56;5026281;28;20109;-78
2022/12/06 08:35:23;;;;;;;3.90;2.00;;;;;;;3.78;97.74;101938.63;5024471;28;20435;-78
2022/12/06 08:37:48;;;;;;;3.50;2.00;;;;;;;3.82;97.90;101930.97;5023292;28;20029;-78
2022/12/06 08:40:14;;;;;;;3.40;1.73;;;;;;;3.84;97.67;101935.34;5019236;28;20061;-78
2022/12/06 08:42:40;;;;;;;4.03;1.87;;;;;;;3.87;97.39;101937.09;5025053;28;20472;-78
2022/12/06 08:45:06;;;;;;;3.60;1.80;;;;;;;3.91;97.98;101933.75;5007408;28;20028;-78
2022/12/06 08:47:32;;;;;;;3.73;1.80;;;;;;;3.95;97.55;101936.41;5023610;28;20105;-78
2022/12/06 08:49:57;;;;;;;5.30;2.17;;;;;;;3.98;97.83;101943.31;5024718;28;20385;-78
2022/12/06 08:52:23;;;;;;;4.70;1.93;;;;;;;4.00;97.51;101939.06;5006946;28;20071;-78
2022/12/06 08:54:48;;;;;;;6.57;1.97;;;;;;;4.03;97.60;101944.28;5020880;28;20104;-78
2022/12/06 08:57:13;;;;;;;5.37;2.57;;;;;;;4.04;97.79;101943.44;5008937;28;20029;-78
2022/12/06 08:59:39;;;;;;;4.20;2.00;;;;;;;4.05;97.45;101946.88;5026124;28;20017;-78
2022/12/06 09:02:04;;;;;;;3.17;1.90;;;;;;;4.04;97.30;101946.00;5021968;28;20545;-78
2022/12/06 09:04:29;;;;;;;4.33;2.23;;;;;;;4.01;96.58;101943.38;5028052;28;20457;-79
2022/12/06 09:06:55;;;;;;;4.07;2.30;;;;;;;4.00;96.46;101941.63;5027268;28;20025;-78
2022/12/06 09:09:20;;;;;;;3.73;2.03;;;;;;;3.97;96.74;101954.44;5013734;28;20033;-78
2022/12/06 09:11:48;;;;;;;4.03;2.07;;;;;;;3.93;96.57;101947.50;5029302;28;20053;-78
2022/12/06 09:14:15;;;;;;;3.83;2.20;;;;;;;3.89;96.47;101956.88;5031736;28;21046;-78
2022/12/06 09:16:42;;;;;;;4.70;2.20;;;;;;;3.84;96.30;101958.50;5030962;28;20382;-78
2022/12/06 09:19:09;;;;;;;5.57;2.20;;;;;;;3.80;96.52;101957.56;5031697;28;20155;-78
2022/12/06 09:21:38;;;;;;;4.53;2.17;;;;;;;3.77;96.12;101957.47;5033305;28;20028;-78
2022/12/06 09:24:04;;;;;;;4.17;2.17;;;;;;;3.72;95.89;101959.13;5012384;28;20014;-78
2022/12/06 09:26:30;;;;;;;4.83;2.10;;;;;;;3.67;96.17;101960.72;5027570;28;20100;-78
2022/12/06 09:28:55;;;;;;;5.23;2.50;;;;;;;3.62;95.68;101959.75;5023345;28;20120;-79
2022/12/06 09:31:21;;;;;;;5.20;2.40;;;;;;;3.57;95.77;101969.09;5022995;28;20101;-78
2022/12/06 09:33:47;;;;;;;3.90;2.30;;;;;;;3.54;96.03;101961.28;5024650;28;20036;-77
2022/12/06 09:36:18;;;;;;;3.33;2.00;;;;;;;3.52;96.41;101970.69;5025041;28;20022;-78
2022/12/06 09:38:46;;;;;;;4.85;2.20;;;;;;;3.51;96.50;101969.78;5024743;28;20033;-77
2022/12/06 09:41:50;;;;;;;4.33;2.40;;;;;;;3.51;96.83;101964.66;5026157;28;20040;-78
2022/12/06 09:44:34;;;;;;;4.27;2.00;;;;;;;3.51;96.63;101968.94;5024313;28;20030;-78
2022/12/06 09:47:21;;;;;;;3.30;2.10;;;;;;;3.49;96.74;101967.19;5024839;28;20033;-78
2022/12/06 09:50:16;;;;;;;3.60;1.90;;;;;;;3.52;96.63;101970.69;5024841;28;20109;-78
2022/12/06 09:52:58;;;;;;;4.40;2.07;;;;;;;3.51;96.38;101966.38;5023179;28;20122;-78
2022/12/06 09:55:31;;;;;;;3.70;1.70;;;;;;;3.52;96.64;101960.38;5025070;28;20099;-77
2022/12/06 09:58:11;;;;;;;3.70;1.87;;;;;;;3.52;96.56;101961.25;5024090;28;20025;-79
2022/12/06 10:01:17;;;;;;;3.80;2.10;;;;;;;3.53;96.52;101962.13;5026414;28;20392;-78
2022/12/06 10:04:25;;;;;;;3.33;1.83;;;;;;;3.55;96.81;101957.88;5027120;28;20029;-77
2022/12/06 10:07:08;;;;;;;3.47;1.73;;;;;;;3.56;96.66;101957.06;5028911;28;20404;-77
2022/12/06 10:10:07;;;;;;;3.87;1.80;;;;;;;3.59;96.38;101954.53;5009164;28;20488;-77
2022/12/06 10:13:12;;;;;;;3.57;1.80;;;;;;;3.59;96.48;101951.94;5027656;28;20041;-78
2022/12/06 10:15:44;;;;;;;3.00;1.60;;;;;;;3.61;96.45;101950.28;5025724;28;20112;-77
2022/12/06 10:18:31;;;;;;;4.70;1.83;;;;;;;3.61;96.56;101946.03;5024210;28;20392;-77
2022/12/06 10:21:03;;;;;;;3.47;1.97;;;;;;;3.62;96.19;101946.88;5025004;28;20047;-77
2022/12/06 10:23:42;;;;;;;5.37;2.00;;;;;;;3.62;95.68;101941.72;5024967;28;20075;-77
2022/12/06 10:26:14;;;;;;;2.70;1.60;;;;;;;3.64;95.65;101945.19;5023734;28;20029;-77
2022/12/06 10:28:57;;;;;;;4.72;2.10;;;;;;;3.65;95.57;101941.78;5023866;28;20053;-77
2022/12/06 10:31:32;;;;;;;3.80;1.80;;;;;;;3.68;95.47;101947.00;5022372;28;20068;-77
2022/12/06 10:34:18;;;;;;;3.47;1.70;;;;;;;3.71;95.66;101947.06;5027047;28;20052;-77
2022/12/06 10:37:00;;;;;;;5.97;1.70;;;;;;;3.72;95.22;101948.81;5025762;28;20033;-78
2022/12/06 10:39:49;;;;;;;3.97;2.03;;;;;;;3.74;95.06;101944.56;5024179;28;20626;-76
2022/12/06 10:42:35;;;;;;;3.30;1.77;;;;;;;3.79;94.96;101949.81;5006906;28;20329;-76
2022/12/06 10:48:18;;;;;;;5.50;2.10;;;;;;;3.85;94.84;101944.75;5023946;28;20778;-77
2022/12/06 10:50:47;;;;;;;3.43;2.00;;;;;;;3.85;94.39;101943.91;5022906;28;20579;-77
2022/12/06 10:53:21;;;;;;;4.60;1.80;;;;;;;3.87;94.13;101942.25;5023079;28;20121;-77
2022/12/06 10:56:01;;;;;;;3.37;1.90;;;;;;;3.88;94.18;101937.09;5024148;28;20052;-77
2022/12/06 10:58:35;;;;;;;5.80;2.07;;;;;;;3.91;94.03;101941.47;5023441;28;20033;-78
2022/12/06 11:01:06;;;;;;;3.93;2.00;;;;;;;3.92;93.93;101935.47;5022177;28;20029;-77
2022/12/06 11:03:34;;;;;;;3.25;1.90;;;;;;;3.97;94.01;101936.41;5023447;28;20116;-78
2022/12/06 11:06:04;;;;;;;3.33;1.90;;;;;;;3.99;93.90;101937.31;5025290;28;20048;-77
2022/12/06 11:08:35;;;;;;;2.93;1.70;;;;;;;4.02;93.95;101937.38;5008324;28;20380;-77
2022/12/06 11:11:04;;;;;;;3.23;1.67;;;;;;;4.04;93.44;101935.72;5025210;28;20072;-77
2022/12/06 11:13:43;;;;;;;3.63;1.90;;;;;;;4.06;92.62;101936.63;5025815;28;20091;-78
2022/12/06 11:16:21;;;;;;;2.80;1.50;;;;;;;4.08;92.21;101932.38;5025062;28;20033;-77
2022/12/06 11:18:47;;;;;;;3.23;1.73;;;;;;;4.10;91.66;101935.81;5025667;28;20037;-78
2022/12/06 11:21:31;;;;;;;5.60;1.60;;;;;;;4.15;91.92;101932.47;5024922;28;20146;-78
2022/12/06 11:24:06;;;;;;;4.37;1.47;;;;;;;4.17;91.25;101938.50;5025307;28;20033;-78
2022/12/06 11:26:45;;;;;;;2.80;1.40;;;;;;;4.21;91.35;101935.16;5024797;28;20049;-77
2022/12/06 11:29:13;;;;;;;2.57;1.53;;;;;;;4.22;91.58;101932.59;5024693;28;20705;-78
2022/12/06 11:31:46;;;;;;;2.37;1.40;;;;;;;4.27;91.59;101935.25;5024563;28;20063;-78
2022/12/06 11:34:19;;;;;;;2.10;1.40;;;;;;;4.30;91.68;101927.59;5024250;28;20044;-78
2022/12/06 11:36:48;;;;;;;3.00;1.40;;;;;;;4.34;89.73;101933.69;5023589;28;20500;-78
2022/12/06 11:39:14;;;;;;;2.63;1.50;;;;;;;4.36;88.97;101927.69;5023436;28;20025;-77
2022/12/06 11:41:42;;;;;;;4.40;2.10;;;;;;;4.39;87.50;101919.16;5022480;28;20404;-78
2022/12/06 11:44:15;;;;;;;3.87;1.50;;;;;;;4.42;87.87;101928.66;5022128;28;20063;-78
2022/12/06 11:46:40;;;;;;;2.93;1.60;;;;;;;4.43;88.25;101922.66;5024586;28;21242;-78
2022/12/06 11:49:23;;;;;;;4.50;1.60;;;;;;;4.47;88.12;101920.16;5023674;28;20034;-78
2022/12/06 11:51:51;;;;;;;3.23;1.47;;;;;;;4.50;88.04;101920.22;5024316;28;20029;-78
2022/12/06 11:54:25;;;;;;;3.05;1.50;;;;;;;4.57;86.70;101913.47;5025267;28;20499;-78
2022/12/06 11:56:50;;;;;;;4.40;1.60;;;;;;;4.63;86.51;101918.69;5023875;28;20053;-78
2022/12/06 11:59:24;;;;;;;2.67;1.60;;;;;;;4.67;86.60;101910.16;5025596;28;20087;-78
2022/12/06 12:01:51;;;;;;;3.70;1.40;;;;;;;4.68;85.60;101909.34;5023238;28;20502;-78
2022/12/06 12:04:37;;;;;;;2.63;1.70;;;;;;;4.67;85.17;101902.44;5023081;28;20365;-78
2022/12/06 12:07:08;;;;;;;2.63;1.50;;;;;;;4.67;84.51;101909.31;5023979;28;20111;-78
2022/12/06 12:10:21;;;;;;;3.08;1.80;;;;;;;4.67;84.71;101897.28;5022779;28;20041;-79
2022/12/06 12:15:33;;;;;;;3.63;1.73;;;;;;;4.68;83.39;101898.16;5024517;28;20060;-78
2022/12/06 12:18:00;;;;;;;3.22;1.85;;;;;;;4.70;83.36;101897.34;5021812;28;20037;-78
2022/12/06 12:20:32;;;;;;;3.40;1.90;;;;;;;4.70;82.95;101888.72;5022283;28;20033;-78
2022/12/06 12:23:15;;;;;;;3.35;1.70;;;;;;;4.71;83.11;101893.91;5022204;28;21496;-78
2022/12/06 12:25:42;;;;;;;5.50;2.17;;;;;;;4.76;83.20;101895.72;5023868;28;20037;-77